SKW4994 KCOS-KORD
Flight info
| Callsign | SKW4994 |
|---|---|
| Flight time | 2h 0m |
| Altitude | 39000 |
| Route | DCT BRK DCT JEWLS DCT KK57C DCT IRK BENKY6 |
| Aircraft | A20N/M-SDE2E3FGHIRWXY/LB1 |
Departure
| Time | 2026-04-20 18:50 |
|---|---|
| Airport | City of Colorado Springs Municipal Airport (KCOS) |
Arrival
| Time | 2026-04-20 20:50 |
|---|---|
| Airport | Chicago O'Hare International Airport (KORD) |
| Time | Latitude | Longitude | Altitude | Speed | Heading |
|---|---|---|---|---|---|
| 2026-04-20 18:12 | 38.79847 | -104.70018 | 6193 ft | 0 kts | 268° |
| 2026-04-20 18:35 | 38.79847 | -104.70003 | 6193 ft | 4 kts | 268° |
| 2026-04-20 18:35 | 38.79846 | -104.69969 | 6193 ft | 4 kts | 284° |
| 2026-04-20 18:35 | 38.79835 | -104.69940 | 6191 ft | 4 kts | 329° |
| 2026-04-20 18:36 | 38.79822 | -104.69934 | 6192 ft | 1 kts | 0° |
| 2026-04-20 18:36 | 38.79820 | -104.69934 | 6192 ft | 0 kts | 0° |
| 2026-04-20 18:42 | 38.79821 | -104.69934 | 6193 ft | 0 kts | 0° |
| 2026-04-20 18:42 | 38.79837 | -104.69934 | 6193 ft | 6 kts | 0° |
| 2026-04-20 18:42 | 38.79903 | -104.69934 | 6193 ft | 12 kts | 0° |
| 2026-04-20 18:42 | 38.79995 | -104.69933 | 6193 ft | 14 kts | 0° |
| 2026-04-20 18:43 | 38.80072 | -104.69967 | 6193 ft | 13 kts | 299° |
| 2026-04-20 18:43 | 38.80087 | -104.70074 | 6192 ft | 12 kts | 322° |
| 2026-04-20 18:43 | 38.80171 | -104.70085 | 6193 ft | 13 kts | 1° |
| 2026-04-20 18:43 | 38.80264 | -104.70096 | 6193 ft | 13 kts | 321° |
| 2026-04-20 18:44 | 38.80280 | -104.70202 | 6193 ft | 13 kts | 267° |
| 2026-04-20 18:44 | 38.80281 | -104.70328 | 6193 ft | 15 kts | 270° |
| 2026-04-20 18:44 | 38.80280 | -104.70468 | 6193 ft | 17 kts | 269° |
| 2026-04-20 18:44 | 38.80280 | -104.70626 | 6193 ft | 18 kts | 270° |
| 2026-04-20 18:45 | 38.80281 | -104.70792 | 6193 ft | 20 kts | 270° |
| 2026-04-20 18:45 | 38.80281 | -104.70972 | 6193 ft | 21 kts | 270° |
| 2026-04-20 18:45 | 38.80281 | -104.71162 | 6193 ft | 21 kts | 271° |
| 2026-04-20 18:45 | 38.80283 | -104.71306 | 6193 ft | 12 kts | 267° |
| 2026-04-20 18:46 | 38.80217 | -104.71350 | 6193 ft | 12 kts | 179° |
| 2026-04-20 18:46 | 38.80123 | -104.71347 | 6193 ft | 14 kts | 181° |
| 2026-04-20 18:46 | 38.80017 | -104.71349 | 6193 ft | 16 kts | 179° |
| 2026-04-20 18:46 | 38.79901 | -104.71349 | 6193 ft | 17 kts | 180° |
| 2026-04-20 18:47 | 38.79776 | -104.71350 | 6193 ft | 19 kts | 180° |
| 2026-04-20 18:47 | 38.79641 | -104.71350 | 6193 ft | 20 kts | 180° |
| 2026-04-20 18:47 | 38.79499 | -104.71351 | 6194 ft | 21 kts | 180° |
| 2026-04-20 18:47 | 38.79412 | -104.71359 | 6194 ft | 10 kts | 204° |
| 2026-04-20 18:48 | 38.79389 | -104.71434 | 6194 ft | 10 kts | 259° |
| 2026-04-20 18:48 | 38.79387 | -104.71526 | 6195 ft | 11 kts | 271° |
| 2026-04-20 18:48 | 38.79392 | -104.71592 | 6195 ft | 5 kts | 301° |
| 2026-04-20 18:48 | 38.79415 | -104.71596 | 6195 ft | 0 kts | 1° |
| 2026-04-20 18:49 | 38.79470 | -104.71594 | 6194 ft | 29 kts | 1° |
| 2026-04-20 18:49 | 38.79914 | -104.71596 | 6191 ft | 98 kts | 359° |
| 2026-04-20 18:49 | 38.80788 | -104.71594 | 6195 ft | 151 kts | 0° |
| 2026-04-20 18:49 | 38.81974 | -104.71594 | 6433 ft | 175 kts | 359° |
| 2026-04-20 18:50 | 38.83138 | -104.71663 | 7405 ft | 166 kts | 358° |
| 2026-04-20 18:50 | 38.84315 | -104.71692 | 7926 ft | 173 kts | 0° |
| 2026-04-20 18:50 | 38.85574 | -104.71634 | 8271 ft | 190 kts | 13° |
| 2026-04-20 18:50 | 38.86804 | -104.70844 | 8652 ft | 208 kts | 34° |
| 2026-04-20 18:51 | 38.88022 | -104.69679 | 9031 ft | 230 kts | 38° |
| 2026-04-20 18:51 | 38.89351 | -104.68325 | 9371 ft | 256 kts | 38° |
| 2026-04-20 18:51 | 38.90798 | -104.66829 | 9809 ft | 278 kts | 43° |
| 2026-04-20 18:51 | 38.91992 | -104.64780 | 10275 ft | 298 kts | 64° |
| 2026-04-20 18:52 | 38.92564 | -104.62170 | 10616 ft | 322 kts | 86° |
| 2026-04-20 18:52 | 38.92284 | -104.59237 | 10934 ft | 344 kts | 109° |
| 2026-04-20 18:52 | 38.91156 | -104.56492 | 11650 ft | 351 kts | 122° |
| 2026-04-20 18:52 | 38.89792 | -104.53878 | 12494 ft | 355 kts | 124° |
| 2026-04-20 18:53 | 38.88378 | -104.51247 | 13318 ft | 360 kts | 124° |
| 2026-04-20 18:53 | 38.86962 | -104.48579 | 14163 ft | 364 kts | 124° |
| 2026-04-20 18:53 | 38.85547 | -104.45860 | 14906 ft | 368 kts | 124° |
| 2026-04-20 18:53 | 38.84131 | -104.43106 | 15633 ft | 372 kts | 124° |
| 2026-04-20 18:54 | 38.82721 | -104.40345 | 16336 ft | 377 kts | 124° |
| 2026-04-20 18:54 | 38.81279 | -104.37519 | 17045 ft | 381 kts | 124° |
| 2026-04-20 18:54 | 38.79817 | -104.34654 | 17751 ft | 386 kts | 124° |
| 2026-04-20 18:54 | 38.78339 | -104.31762 | 18445 ft | 390 kts | 124° |
| 2026-04-20 18:55 | 38.76846 | -104.28843 | 19049 ft | 394 kts | 124° |
| 2026-04-20 18:55 | 38.75333 | -104.25892 | 19659 ft | 398 kts | 124° |
| 2026-04-20 18:55 | 38.73806 | -104.22916 | 20260 ft | 402 kts | 124° |
| 2026-04-20 18:55 | 38.72263 | -104.19911 | 20857 ft | 406 kts | 124° |
| 2026-04-20 18:56 | 38.70706 | -104.16881 | 21468 ft | 410 kts | 124° |
| 2026-04-20 18:56 | 38.69128 | -104.13814 | 22057 ft | 414 kts | 124° |
| 2026-04-20 18:56 | 38.67534 | -104.10719 | 22669 ft | 418 kts | 124° |
| 2026-04-20 18:56 | 38.65948 | -104.07645 | 23246 ft | 422 kts | 124° |
| 2026-04-20 18:57 | 38.64323 | -104.04495 | 23797 ft | 426 kts | 124° |
| 2026-04-20 18:57 | 38.62686 | -104.01327 | 24301 ft | 429 kts | 124° |
| 2026-04-20 18:57 | 38.61038 | -103.98138 | 24824 ft | 431 kts | 124° |
| 2026-04-20 18:57 | 38.59375 | -103.94926 | 25301 ft | 435 kts | 124° |
| 2026-04-20 18:58 | 38.57703 | -103.91697 | 25783 ft | 438 kts | 124° |
| 2026-04-20 18:58 | 38.56027 | -103.88432 | 26268 ft | 440 kts | 122° |
| 2026-04-20 18:58 | 38.54753 | -103.84865 | 26715 ft | 445 kts | 108° |
| 2026-04-20 18:58 | 38.54144 | -103.80974 | 27165 ft | 449 kts | 95° |
| 2026-04-20 18:59 | 38.54230 | -103.77029 | 27574 ft | 453 kts | 82° |
| 2026-04-20 18:59 | 38.54899 | -103.73082 | 27985 ft | 456 kts | 75° |
| 2026-04-20 18:59 | 38.55757 | -103.69166 | 28384 ft | 459 kts | 74° |
| 2026-04-20 18:59 | 38.56627 | -103.65228 | 28782 ft | 462 kts | 75° |
| 2026-04-20 19:00 | 38.57462 | -103.61250 | 29159 ft | 465 kts | 75° |
| 2026-04-20 19:00 | 38.58265 | -103.57241 | 29536 ft | 468 kts | 76° |
| 2026-04-20 19:00 | 38.59053 | -103.53185 | 29901 ft | 471 kts | 76° |
| 2026-04-20 19:00 | 38.59832 | -103.49110 | 30241 ft | 473 kts | 76° |
| 2026-04-20 19:01 | 38.60608 | -103.45021 | 30564 ft | 476 kts | 76° |
| 2026-04-20 19:01 | 38.61379 | -103.40946 | 30884 ft | 478 kts | 76° |
| 2026-04-20 19:01 | 38.62159 | -103.36811 | 31222 ft | 480 kts | 76° |
| 2026-04-20 19:01 | 38.62941 | -103.32663 | 31628 ft | 480 kts | 76° |
| 2026-04-20 19:02 | 38.63721 | -103.28515 | 32069 ft | 479 kts | 76° |
| 2026-04-20 19:02 | 38.64498 | -103.24381 | 32487 ft | 478 kts | 76° |
| 2026-04-20 19:02 | 38.65272 | -103.20248 | 32908 ft | 478 kts | 76° |
| 2026-04-20 19:02 | 38.66045 | -103.16116 | 33313 ft | 477 kts | 76° |
| 2026-04-20 19:03 | 38.66814 | -103.11992 | 33710 ft | 476 kts | 76° |
| 2026-04-20 19:03 | 38.67580 | -103.07876 | 34066 ft | 476 kts | 76° |
| 2026-04-20 19:03 | 38.68336 | -103.03806 | 34381 ft | 476 kts | 76° |
| 2026-04-20 19:03 | 38.69098 | -102.99692 | 34687 ft | 476 kts | 76° |
| 2026-04-20 19:04 | 38.69861 | -102.95568 | 34972 ft | 476 kts | 76° |
| 2026-04-20 19:04 | 38.70622 | -102.91445 | 35252 ft | 476 kts | 76° |
| 2026-04-20 19:04 | 38.71382 | -102.87322 | 35541 ft | 476 kts | 76° |
| 2026-04-20 19:04 | 38.72141 | -102.83193 | 35814 ft | 476 kts | 76° |
| 2026-04-20 19:05 | 38.72897 | -102.79070 | 36089 ft | 476 kts | 76° |
| 2026-04-20 19:05 | 38.73651 | -102.74951 | 36354 ft | 476 kts | 76° |
| 2026-04-20 19:05 | 38.74404 | -102.70827 | 36610 ft | 476 kts | 76° |
| 2026-04-20 19:05 | 38.75156 | -102.66702 | 36861 ft | 476 kts | 76° |
| 2026-04-20 19:06 | 38.75907 | -102.62577 | 37120 ft | 476 kts | 76° |
| 2026-04-20 19:06 | 38.76646 | -102.58501 | 37346 ft | 476 kts | 76° |
| 2026-04-20 19:06 | 38.77393 | -102.54379 | 37581 ft | 476 kts | 76° |
| 2026-04-20 19:06 | 38.78140 | -102.50246 | 37806 ft | 476 kts | 76° |
| 2026-04-20 19:07 | 38.78884 | -102.46117 | 38025 ft | 476 kts | 76° |
| 2026-04-20 19:07 | 38.79628 | -102.41982 | 38232 ft | 476 kts | 76° |
| 2026-04-20 19:07 | 38.80370 | -102.37850 | 38438 ft | 476 kts | 76° |
| 2026-04-20 19:07 | 38.81110 | -102.33722 | 38623 ft | 476 kts | 76° |
| 2026-04-20 19:08 | 38.81851 | -102.29582 | 38764 ft | 476 kts | 76° |
| 2026-04-20 19:08 | 38.83328 | -102.21293 | 38779 ft | 476 kts | 76° |
| 2026-04-20 19:09 | 38.84787 | -102.13074 | 38780 ft | 476 kts | 76° |
| 2026-04-20 19:09 | 38.86250 | -102.04792 | 38782 ft | 476 kts | 76° |
| 2026-04-20 19:10 | 38.87709 | -101.96501 | 38781 ft | 477 kts | 76° |
| 2026-04-20 19:10 | 38.89164 | -101.88192 | 38780 ft | 477 kts | 76° |
| 2026-04-20 19:11 | 38.90611 | -101.79897 | 38780 ft | 477 kts | 76° |
| 2026-04-20 19:11 | 38.92055 | -101.71577 | 38780 ft | 477 kts | 76° |
| 2026-04-20 19:12 | 38.93483 | -101.63318 | 38786 ft | 477 kts | 76° |
| 2026-04-20 19:12 | 38.94915 | -101.54992 | 38785 ft | 477 kts | 76° |
| 2026-04-20 19:13 | 38.96341 | -101.46661 | 38788 ft | 478 kts | 76° |
| 2026-04-20 19:13 | 38.97765 | -101.38314 | 38784 ft | 478 kts | 77° |
| 2026-04-20 19:14 | 38.99170 | -101.30031 | 38790 ft | 478 kts | 77° |
| 2026-04-20 19:14 | 39.00581 | -101.21681 | 38797 ft | 478 kts | 77° |
| 2026-04-20 19:15 | 39.01986 | -101.13325 | 38812 ft | 478 kts | 77° |
| 2026-04-20 19:15 | 39.03387 | -101.04954 | 38825 ft | 478 kts | 77° |
| 2026-04-20 19:16 | 39.04779 | -100.96594 | 38845 ft | 478 kts | 77° |
| 2026-04-20 19:16 | 39.06158 | -100.88278 | 38850 ft | 479 kts | 77° |
| 2026-04-20 19:17 | 39.07541 | -100.79902 | 38852 ft | 479 kts | 77° |
| 2026-04-20 19:17 | 39.08918 | -100.71518 | 38849 ft | 479 kts | 77° |
| 2026-04-20 19:18 | 39.10287 | -100.63141 | 38837 ft | 479 kts | 77° |
| 2026-04-20 19:18 | 39.11652 | -100.54749 | 38829 ft | 479 kts | 77° |
| 2026-04-20 19:19 | 39.13002 | -100.46415 | 38820 ft | 479 kts | 77° |
| 2026-04-20 19:19 | 39.14354 | -100.38021 | 38809 ft | 479 kts | 77° |
| 2026-04-20 19:20 | 39.15701 | -100.29626 | 38808 ft | 479 kts | 77° |
| 2026-04-20 19:20 | 39.17041 | -100.21226 | 38809 ft | 479 kts | 77° |
| 2026-04-20 19:21 | 39.18375 | -100.12824 | 38818 ft | 478 kts | 77° |
| 2026-04-20 19:21 | 39.19695 | -100.04471 | 38830 ft | 479 kts | 77° |
| 2026-04-20 19:22 | 39.21018 | -99.96058 | 38837 ft | 478 kts | 77° |
| 2026-04-20 19:22 | 39.22333 | -99.87655 | 38842 ft | 478 kts | 77° |
| 2026-04-20 19:23 | 39.23643 | -99.79243 | 38844 ft | 478 kts | 77° |
| 2026-04-20 19:23 | 39.24944 | -99.70840 | 38845 ft | 478 kts | 77° |
| 2026-04-20 19:24 | 39.26232 | -99.62485 | 38838 ft | 478 kts | 77° |
| 2026-04-20 19:24 | 39.27523 | -99.54066 | 38834 ft | 478 kts | 77° |
| 2026-04-20 19:25 | 39.28806 | -99.45660 | 38827 ft | 478 kts | 77° |
| 2026-04-20 19:25 | 39.30084 | -99.37246 | 38824 ft | 478 kts | 77° |
| 2026-04-20 19:26 | 39.31347 | -99.28880 | 38826 ft | 478 kts | 77° |
| 2026-04-20 19:26 | 39.32613 | -99.20461 | 38827 ft | 478 kts | 77° |
| 2026-04-20 19:27 | 39.33872 | -99.12036 | 38827 ft | 478 kts | 77° |
| 2026-04-20 19:27 | 39.35124 | -99.03617 | 38833 ft | 478 kts | 77° |
| 2026-04-20 19:28 | 39.36372 | -98.95185 | 38836 ft | 478 kts | 77° |
| 2026-04-20 19:28 | 39.37612 | -98.86756 | 38836 ft | 477 kts | 77° |
| 2026-04-20 19:29 | 39.38847 | -98.78324 | 38838 ft | 477 kts | 77° |
| 2026-04-20 19:29 | 39.40075 | -98.69887 | 38841 ft | 477 kts | 77° |
| 2026-04-20 19:30 | 39.41289 | -98.61511 | 38843 ft | 477 kts | 77° |
| 2026-04-20 19:30 | 39.42505 | -98.53069 | 38845 ft | 477 kts | 77° |
| 2026-04-20 19:31 | 39.43715 | -98.44629 | 38851 ft | 477 kts | 77° |
| 2026-04-20 19:31 | 39.44918 | -98.36188 | 38854 ft | 477 kts | 77° |
| 2026-04-20 19:32 | 39.46116 | -98.27737 | 38854 ft | 477 kts | 77° |
| 2026-04-20 19:32 | 39.47300 | -98.19354 | 38856 ft | 477 kts | 77° |
| 2026-04-20 19:33 | 39.48490 | -98.10910 | 38858 ft | 477 kts | 77° |
| 2026-04-20 19:33 | 39.49674 | -98.02462 | 38863 ft | 477 kts | 77° |
| 2026-04-20 19:34 | 39.50781 | -97.93985 | 38873 ft | 477 kts | 77° |
| 2026-04-20 19:34 | 39.52001 | -97.85548 | 38878 ft | 477 kts | 77° |
| 2026-04-20 19:35 | 39.53205 | -97.77165 | 38879 ft | 477 kts | 77° |
| 2026-04-20 19:35 | 39.54392 | -97.68725 | 38879 ft | 477 kts | 77° |
| 2026-04-20 19:36 | 39.55568 | -97.60263 | 38880 ft | 477 kts | 77° |
| 2026-04-20 19:36 | 39.56732 | -97.51813 | 38878 ft | 477 kts | 77° |
| 2026-04-20 19:37 | 39.57892 | -97.43353 | 38877 ft | 477 kts | 77° |
| 2026-04-20 19:37 | 39.59039 | -97.34940 | 38879 ft | 477 kts | 77° |
| 2026-04-20 19:38 | 39.60188 | -97.26465 | 38879 ft | 477 kts | 77° |
| 2026-04-20 19:38 | 39.61329 | -97.17995 | 38878 ft | 477 kts | 77° |
| 2026-04-20 19:39 | 39.62465 | -97.09514 | 38881 ft | 477 kts | 77° |
| 2026-04-20 19:39 | 39.63589 | -97.01079 | 38886 ft | 478 kts | 77° |
| 2026-04-20 19:40 | 39.64714 | -96.92587 | 38891 ft | 478 kts | 77° |
| 2026-04-20 19:40 | 39.65832 | -96.84093 | 38886 ft | 478 kts | 77° |
| 2026-04-20 19:41 | 39.66946 | -96.75583 | 38892 ft | 478 kts | 77° |
| 2026-04-20 19:41 | 39.68047 | -96.67130 | 38890 ft | 478 kts | 77° |
| 2026-04-20 19:42 | 39.69149 | -96.58612 | 38889 ft | 479 kts | 77° |
| 2026-04-20 19:42 | 39.70246 | -96.50080 | 38890 ft | 479 kts | 77° |
| 2026-04-20 19:43 | 39.71337 | -96.41550 | 38887 ft | 479 kts | 77° |
| 2026-04-20 19:43 | 39.72416 | -96.33056 | 38888 ft | 480 kts | 77° |
| 2026-04-20 19:44 | 39.73495 | -96.24511 | 38896 ft | 480 kts | 77° |
| 2026-04-20 19:44 | 39.74571 | -96.15940 | 38900 ft | 480 kts | 77° |
| 2026-04-20 19:45 | 39.75640 | -96.07367 | 38905 ft | 481 kts | 77° |
| 2026-04-20 19:45 | 39.76704 | -95.98789 | 38899 ft | 481 kts | 77° |
| 2026-04-20 19:46 | 39.77756 | -95.90246 | 38904 ft | 482 kts | 77° |
| 2026-04-20 19:46 | 39.78810 | -95.81635 | 38908 ft | 483 kts | 77° |
| 2026-04-20 19:47 | 39.79859 | -95.73016 | 38910 ft | 483 kts | 77° |
| 2026-04-20 19:47 | 39.80903 | -95.64382 | 38914 ft | 483 kts | 77° |
| 2026-04-20 19:48 | 39.81933 | -95.55806 | 38913 ft | 483 kts | 77° |
| 2026-04-20 19:48 | 39.82963 | -95.47165 | 38915 ft | 484 kts | 77° |
| 2026-04-20 19:49 | 39.83988 | -95.38520 | 38918 ft | 484 kts | 77° |
| 2026-04-20 19:49 | 39.85009 | -95.29856 | 38924 ft | 485 kts | 77° |
| 2026-04-20 19:50 | 39.86018 | -95.21225 | 38932 ft | 485 kts | 77° |
| 2026-04-20 19:50 | 39.87027 | -95.12545 | 38938 ft | 485 kts | 78° |
| 2026-04-20 19:51 | 39.88030 | -95.03857 | 38941 ft | 485 kts | 78° |
| 2026-04-20 19:51 | 39.89026 | -94.95170 | 38942 ft | 486 kts | 78° |
| 2026-04-20 19:52 | 39.90016 | -94.86467 | 38945 ft | 486 kts | 77° |
| 2026-04-20 19:52 | 39.91000 | -94.77768 | 38943 ft | 486 kts | 78° |
| 2026-04-20 19:53 | 39.91972 | -94.69117 | 38943 ft | 486 kts | 78° |
| 2026-04-20 19:53 | 39.92944 | -94.60404 | 38947 ft | 486 kts | 78° |
| 2026-04-20 19:54 | 39.93909 | -94.51685 | 38967 ft | 486 kts | 77° |
| 2026-04-20 19:54 | 39.94868 | -94.42961 | 38979 ft | 486 kts | 78° |
| 2026-04-20 19:55 | 39.95816 | -94.34288 | 38989 ft | 486 kts | 77° |
| 2026-04-20 19:55 | 39.96289 | -94.29926 | 39106 ft | 487 kts | 77° |
| 2026-04-20 19:55 | 39.96762 | -94.25559 | 39214 ft | 488 kts | 77° |
| 2026-04-20 19:55 | 39.97235 | -94.21178 | 39331 ft | 489 kts | 77° |
| 2026-04-20 19:56 | 39.97548 | -94.18271 | 39412 ft | 489 kts | 77° |
| 2026-04-20 19:56 | 39.98177 | -94.12394 | 39550 ft | 489 kts | 77° |
| 2026-04-20 19:56 | 39.98643 | -94.08015 | 39450 ft | 486 kts | 77° |
| 2026-04-20 19:56 | 39.99105 | -94.03660 | 39251 ft | 483 kts | 77° |
| 2026-04-20 19:57 | 39.99564 | -93.99320 | 39202 ft | 485 kts | 77° |
| 2026-04-20 19:57 | 40.00482 | -93.90628 | 39199 ft | 488 kts | 77° |
| 2026-04-20 19:58 | 40.01397 | -93.81867 | 39207 ft | 487 kts | 77° |
| 2026-04-20 19:58 | 40.02305 | -93.73107 | 39177 ft | 487 kts | 77° |
| 2026-04-20 19:59 | 40.03200 | -93.64414 | 39183 ft | 487 kts | 77° |
| 2026-04-20 19:59 | 40.04095 | -93.55657 | 39182 ft | 487 kts | 77° |
| 2026-04-20 20:00 | 40.04983 | -93.46905 | 39186 ft | 486 kts | 77° |
| 2026-04-20 20:00 | 40.05863 | -93.38157 | 39189 ft | 486 kts | 77° |
| 2026-04-20 20:01 | 40.06589 | -93.30886 | 39192 ft | 486 kts | 77° |
| 2026-04-20 20:01 | 40.07596 | -93.20724 | 39195 ft | 486 kts | 77° |
| 2026-04-20 20:02 | 40.08456 | -93.11975 | 39201 ft | 486 kts | 77° |
| 2026-04-20 20:02 | 40.09309 | -93.03230 | 39213 ft | 486 kts | 77° |
| 2026-04-20 20:03 | 40.10012 | -92.95957 | 39217 ft | 486 kts | 77° |
| 2026-04-20 20:03 | 40.10853 | -92.87208 | 39225 ft | 485 kts | 77° |
| 2026-04-20 20:04 | 40.11823 | -92.77045 | 39234 ft | 485 kts | 77° |
| 2026-04-20 20:04 | 40.12514 | -92.69771 | 39239 ft | 485 kts | 77° |
| 2026-04-20 20:05 | 40.13525 | -92.61099 | 39232 ft | 478 kts | 69° |
| 2026-04-20 20:05 | 40.15723 | -92.53042 | 39227 ft | 465 kts | 57° |
| 2026-04-20 20:06 | 40.18499 | -92.45408 | 39230 ft | 465 kts | 57° |
| 2026-04-20 20:06 | 40.21245 | -92.37808 | 39233 ft | 465 kts | 57° |
| 2026-04-20 20:07 | 40.24001 | -92.30160 | 39239 ft | 465 kts | 57° |
| 2026-04-20 20:07 | 40.26756 | -92.22497 | 39241 ft | 465 kts | 57° |
| 2026-04-20 20:08 | 40.29504 | -92.14833 | 39241 ft | 465 kts | 57° |
| 2026-04-20 20:08 | 40.32246 | -92.07167 | 39245 ft | 465 kts | 57° |
| 2026-04-20 20:09 | 40.34964 | -91.99549 | 39244 ft | 464 kts | 57° |
| 2026-04-20 20:09 | 40.37693 | -91.91875 | 39245 ft | 464 kts | 57° |
| 2026-04-20 20:10 | 40.40415 | -91.84205 | 39248 ft | 464 kts | 57° |
| 2026-04-20 20:10 | 40.43128 | -91.76529 | 39253 ft | 464 kts | 57° |
| 2026-04-20 20:11 | 40.45756 | -91.68799 | 39258 ft | 464 kts | 58° |
| 2026-04-20 20:11 | 40.48350 | -91.61104 | 39257 ft | 463 kts | 58° |
| 2026-04-20 20:12 | 40.50961 | -91.53372 | 39255 ft | 463 kts | 58° |
| 2026-04-20 20:12 | 40.53569 | -91.45639 | 39256 ft | 462 kts | 58° |
| 2026-04-20 20:13 | 40.57487 | -91.34068 | 39272 ft | 461 kts | 57° |
| 2026-04-20 20:13 | 40.60124 | -91.26390 | 39264 ft | 461 kts | 57° |
| 2026-04-20 20:14 | 40.62751 | -91.18702 | 39269 ft | 461 kts | 57° |
| 2026-04-20 20:14 | 40.65349 | -91.11066 | 39265 ft | 461 kts | 57° |
| 2026-04-20 20:15 | 40.67967 | -91.03347 | 39270 ft | 460 kts | 57° |
| 2026-04-20 20:15 | 40.70574 | -90.95642 | 39267 ft | 460 kts | 57° |
| 2026-04-20 20:16 | 40.73158 | -90.87983 | 39283 ft | 460 kts | 58° |
| 2026-04-20 20:16 | 40.75752 | -90.80273 | 39279 ft | 460 kts | 58° |
| 2026-04-20 20:17 | 40.78343 | -90.72550 | 39282 ft | 460 kts | 58° |
| 2026-04-20 20:17 | 40.80927 | -90.64828 | 39289 ft | 460 kts | 58° |
| 2026-04-20 20:18 | 40.83507 | -90.57099 | 39295 ft | 460 kts | 58° |
| 2026-04-20 20:18 | 40.86089 | -90.49382 | 39300 ft | 460 kts | 58° |
| 2026-04-20 20:19 | 40.88652 | -90.41703 | 39298 ft | 460 kts | 58° |
| 2026-04-20 20:19 | 40.91224 | -90.33973 | 39299 ft | 460 kts | 58° |
| 2026-04-20 20:20 | 40.93794 | -90.26225 | 39302 ft | 460 kts | 58° |
| 2026-04-20 20:20 | 40.96358 | -90.18473 | 39305 ft | 460 kts | 58° |
| 2026-04-20 20:21 | 40.98900 | -90.10764 | 39312 ft | 460 kts | 58° |
| 2026-04-20 20:21 | 41.01457 | -90.02991 | 39313 ft | 461 kts | 58° |
| 2026-04-20 20:22 | 41.04012 | -89.95207 | 39294 ft | 461 kts | 58° |
| 2026-04-20 20:22 | 41.06581 | -89.87436 | 39257 ft | 459 kts | 58° |
| 2026-04-20 20:23 | 41.07849 | -89.83596 | 38635 ft | 457 kts | 58° |
| 2026-04-20 20:23 | 41.09119 | -89.79749 | 37531 ft | 459 kts | 57° |
| 2026-04-20 20:23 | 41.10387 | -89.75909 | 36297 ft | 464 kts | 57° |
| 2026-04-20 20:23 | 41.11685 | -89.71969 | 35106 ft | 467 kts | 57° |
| 2026-04-20 20:24 | 41.12980 | -89.68018 | 33986 ft | 467 kts | 57° |
| 2026-04-20 20:24 | 41.14275 | -89.64064 | 32628 ft | 469 kts | 57° |
| 2026-04-20 20:24 | 41.15571 | -89.60114 | 31206 ft | 474 kts | 57° |
| 2026-04-20 20:24 | 41.17052 | -89.56172 | 29633 ft | 473 kts | 53° |
| 2026-04-20 20:25 | 41.18626 | -89.52325 | 28315 ft | 472 kts | 53° |
| 2026-04-20 20:25 | 41.20169 | -89.48525 | 27270 ft | 464 kts | 53° |
| 2026-04-20 20:25 | 41.21684 | -89.44784 | 26250 ft | 457 kts | 53° |
| 2026-04-20 20:25 | 41.23175 | -89.41101 | 25247 ft | 450 kts | 53° |
| 2026-04-20 20:26 | 41.24631 | -89.37506 | 24275 ft | 445 kts | 54° |
| 2026-04-20 20:26 | 41.26085 | -89.33913 | 23229 ft | 439 kts | 54° |
| 2026-04-20 20:26 | 41.27525 | -89.30352 | 22531 ft | 434 kts | 54° |
| 2026-04-20 20:26 | 41.28937 | -89.26846 | 21970 ft | 426 kts | 54° |
| 2026-04-20 20:27 | 41.30325 | -89.23392 | 21385 ft | 420 kts | 54° |
| 2026-04-20 20:27 | 41.31688 | -89.19990 | 20810 ft | 415 kts | 54° |
| 2026-04-20 20:27 | 41.33035 | -89.16623 | 20241 ft | 409 kts | 54° |
| 2026-04-20 20:27 | 41.34364 | -89.13302 | 19667 ft | 405 kts | 54° |
| 2026-04-20 20:28 | 41.35682 | -89.10004 | 19079 ft | 401 kts | 54° |
| 2026-04-20 20:28 | 41.36967 | -89.06786 | 18484 ft | 399 kts | 54° |
| 2026-04-20 20:28 | 41.38258 | -89.03548 | 17914 ft | 393 kts | 54° |
| 2026-04-20 20:28 | 41.39549 | -89.00318 | 16984 ft | 398 kts | 55° |
| 2026-04-20 20:29 | 41.40836 | -88.97089 | 16466 ft | 391 kts | 55° |
| 2026-04-20 20:29 | 41.42095 | -88.93918 | 15971 ft | 385 kts | 55° |
| 2026-04-20 20:29 | 41.43341 | -88.90775 | 15429 ft | 381 kts | 56° |
| 2026-04-20 20:29 | 41.44571 | -88.87675 | 14898 ft | 377 kts | 56° |
| 2026-04-20 20:30 | 41.45791 | -88.84596 | 14380 ft | 374 kts | 56° |
| 2026-04-20 20:30 | 41.46998 | -88.81547 | 13800 ft | 371 kts | 56° |
| 2026-04-20 20:30 | 41.48177 | -88.78564 | 13302 ft | 366 kts | 56° |
| 2026-04-20 20:30 | 41.49354 | -88.75581 | 12792 ft | 361 kts | 56° |
| 2026-04-20 20:31 | 41.50515 | -88.72634 | 12287 ft | 357 kts | 57° |
| 2026-04-20 20:31 | 41.51664 | -88.69719 | 12049 ft | 356 kts | 57° |
| 2026-04-20 20:31 | 41.52821 | -88.66789 | 11957 ft | 356 kts | 57° |
| 2026-04-20 20:31 | 41.53974 | -88.63865 | 11576 ft | 355 kts | 57° |
| 2026-04-20 20:32 | 41.55115 | -88.60964 | 11422 ft | 353 kts | 57° |
| 2026-04-20 20:32 | 41.56296 | -88.58087 | 11247 ft | 352 kts | 52° |
| 2026-04-20 20:32 | 41.57733 | -88.55493 | 11083 ft | 345 kts | 43° |
| 2026-04-20 20:32 | 41.59356 | -88.53145 | 10925 ft | 344 kts | 41° |
| 2026-04-20 20:33 | 41.60940 | -88.50851 | 10762 ft | 343 kts | 41° |
| 2026-04-20 20:33 | 41.62563 | -88.48488 | 10596 ft | 341 kts | 42° |
| 2026-04-20 20:33 | 41.64161 | -88.46154 | 10477 ft | 337 kts | 42° |
| 2026-04-20 20:33 | 41.65717 | -88.43874 | 10391 ft | 326 kts | 42° |
| 2026-04-20 20:34 | 41.67213 | -88.41679 | 10273 ft | 313 kts | 41° |
| 2026-04-20 20:34 | 41.68648 | -88.39573 | 10116 ft | 301 kts | 41° |
| 2026-04-20 20:34 | 41.70047 | -88.37527 | 9813 ft | 294 kts | 41° |
| 2026-04-20 20:34 | 41.71430 | -88.35543 | 9670 ft | 291 kts | 38° |
| 2026-04-20 20:35 | 41.72936 | -88.33745 | 9537 ft | 290 kts | 36° |
| 2026-04-20 20:35 | 41.74441 | -88.31956 | 9399 ft | 288 kts | 36° |
| 2026-04-20 20:35 | 41.75939 | -88.30167 | 9264 ft | 289 kts | 36° |
| 2026-04-20 20:35 | 41.77431 | -88.28382 | 9112 ft | 287 kts | 36° |
| 2026-04-20 20:36 | 41.78921 | -88.26596 | 8985 ft | 287 kts | 36° |
| 2026-04-20 20:36 | 41.80407 | -88.24816 | 8837 ft | 287 kts | 36° |
| 2026-04-20 20:36 | 41.81877 | -88.23056 | 8710 ft | 287 kts | 37° |
| 2026-04-20 20:36 | 41.83359 | -88.21277 | 8566 ft | 286 kts | 37° |
| 2026-04-20 20:37 | 41.84840 | -88.19494 | 8436 ft | 286 kts | 37° |
| 2026-04-20 20:37 | 41.86315 | -88.17720 | 8295 ft | 285 kts | 37° |
| 2026-04-20 20:37 | 41.87723 | -88.15858 | 8153 ft | 287 kts | 50° |
| 2026-04-20 20:37 | 41.88541 | -88.13386 | 8025 ft | 296 kts | 77° |
| 2026-04-20 20:38 | 41.88670 | -88.10630 | 7877 ft | 296 kts | 88° |
| 2026-04-20 20:38 | 41.88626 | -88.07876 | 7766 ft | 292 kts | 90° |
| 2026-04-20 20:38 | 41.88556 | -88.05200 | 7682 ft | 281 kts | 90° |
| 2026-04-20 20:38 | 41.88502 | -88.02666 | 7589 ft | 270 kts | 90° |
| 2026-04-20 20:39 | 41.88463 | -88.00203 | 7466 ft | 260 kts | 90° |
| 2026-04-20 20:39 | 41.88439 | -87.97790 | 7229 ft | 256 kts | 89° |
| 2026-04-20 20:39 | 41.88438 | -87.95403 | 7106 ft | 258 kts | 89° |
| 2026-04-20 20:39 | 41.88446 | -87.93000 | 6977 ft | 256 kts | 89° |
| 2026-04-20 20:40 | 41.88451 | -87.90619 | 6856 ft | 256 kts | 89° |
| 2026-04-20 20:40 | 41.88450 | -87.88248 | 6728 ft | 253 kts | 90° |
| 2026-04-20 20:40 | 41.88447 | -87.85888 | 6615 ft | 253 kts | 90° |
| 2026-04-20 20:40 | 41.88443 | -87.83531 | 6490 ft | 252 kts | 90° |
| 2026-04-20 20:41 | 41.88439 | -87.81196 | 6384 ft | 250 kts | 90° |
| 2026-04-20 20:41 | 41.88436 | -87.78882 | 6258 ft | 251 kts | 90° |
| 2026-04-20 20:41 | 41.88434 | -87.76571 | 6160 ft | 244 kts | 90° |
| 2026-04-20 20:41 | 41.88433 | -87.74341 | 6077 ft | 234 kts | 91° |
| 2026-04-20 20:42 | 41.88433 | -87.72185 | 5916 ft | 228 kts | 91° |
| 2026-04-20 20:42 | 41.88431 | -87.70084 | 5816 ft | 228 kts | 91° |
| 2026-04-20 20:42 | 41.88426 | -87.67931 | 5694 ft | 229 kts | 92° |
| 2026-04-20 20:42 | 41.88424 | -87.65818 | 5560 ft | 225 kts | 92° |
| 2026-04-20 20:43 | 41.88565 | -87.63741 | 5390 ft | 223 kts | 71° |
| 2026-04-20 20:43 | 41.89315 | -87.61978 | 5299 ft | 213 kts | 56° |
| 2026-04-20 20:43 | 41.90174 | -87.60448 | 5179 ft | 205 kts | 46° |
| 2026-04-20 20:43 | 41.91241 | -87.59208 | 4902 ft | 204 kts | 25° |
| 2026-04-20 20:44 | 41.92601 | -87.58888 | 4595 ft | 200 kts | 346° |
| 2026-04-20 20:44 | 41.93799 | -87.59699 | 4294 ft | 193 kts | 315° |
| 2026-04-20 20:44 | 41.94821 | -87.60875 | 4008 ft | 193 kts | 315° |
| 2026-04-20 20:44 | 41.95842 | -87.62034 | 3759 ft | 192 kts | 316° |
| 2026-04-20 20:45 | 41.96874 | -87.63179 | 3515 ft | 192 kts | 317° |
| 2026-04-20 20:45 | 41.97907 | -87.64320 | 3233 ft | 191 kts | 313° |
| 2026-04-20 20:45 | 41.98621 | -87.65762 | 3063 ft | 183 kts | 284° |
| 2026-04-20 20:45 | 41.98852 | -87.67420 | 3010 ft | 181 kts | 269° |
| 2026-04-20 20:46 | 41.98867 | -87.69116 | 3011 ft | 182 kts | 265° |
| 2026-04-20 20:46 | 41.98852 | -87.70802 | 3011 ft | 183 kts | 266° |
| 2026-04-20 20:46 | 41.98855 | -87.72494 | 2988 ft | 180 kts | 266° |
| 2026-04-20 20:46 | 41.98859 | -87.74143 | 3061 ft | 169 kts | 266° |
| 2026-04-20 20:47 | 41.98875 | -87.75682 | 2979 ft | 162 kts | 266° |
| 2026-04-20 20:47 | 41.98887 | -87.77181 | 2751 ft | 160 kts | 265° |
| 2026-04-20 20:47 | 41.98843 | -87.78685 | 2611 ft | 162 kts | 265° |
| 2026-04-20 20:47 | 41.98840 | -87.80240 | 2198 ft | 168 kts | 266° |
| 2026-04-20 20:48 | 41.98852 | -87.81775 | 1848 ft | 159 kts | 266° |
| 2026-04-20 20:48 | 41.98851 | -87.83183 | 1571 ft | 146 kts | 265° |
| 2026-04-20 20:48 | 41.98832 | -87.84516 | 1383 ft | 140 kts | 264° |
| 2026-04-20 20:48 | 41.98824 | -87.85801 | 1152 ft | 135 kts | 266° |
| 2026-04-20 20:49 | 41.98840 | -87.87060 | 1025 ft | 133 kts | 265° |
| 2026-04-20 20:49 | 41.98834 | -87.88308 | 824 ft | 135 kts | 265° |
| 2026-04-20 20:49 | 41.98837 | -87.89563 | 689 ft | 133 kts | 265° |
| 2026-04-20 20:49 | 41.98827 | -87.90656 | 672 ft | 82 kts | 271° |
| 2026-04-20 20:50 | 41.98834 | -87.91080 | 670 ft | 31 kts | 268° |
| 2026-04-20 20:50 | 41.98828 | -87.91359 | 667 ft | 24 kts | 265° |
| 2026-04-20 20:50 | 41.98757 | -87.91550 | 668 ft | 22 kts | 236° |
| 2026-04-20 20:50 | 41.98691 | -87.91697 | 669 ft | 14 kts | 259° |
| 2026-04-20 20:51 | 41.98654 | -87.91816 | 667 ft | 13 kts | 207° |
| 2026-04-20 20:51 | 41.98585 | -87.91818 | 669 ft | 10 kts | 180° |
| 2026-04-20 20:51 | 41.98505 | -87.91819 | 669 ft | 13 kts | 180° |
| 2026-04-20 20:51 | 41.98408 | -87.91820 | 669 ft | 15 kts | 180° |
| 2026-04-20 20:52 | 41.98306 | -87.91821 | 670 ft | 16 kts | 180° |
| 2026-04-20 20:52 | 41.98187 | -87.91822 | 669 ft | 18 kts | 180° |
| 2026-04-20 20:52 | 41.98055 | -87.91810 | 668 ft | 20 kts | 158° |
| 2026-04-20 20:52 | 41.97945 | -87.91696 | 668 ft | 21 kts | 141° |
| 2026-04-20 20:53 | 41.97850 | -87.91592 | 668 ft | 18 kts | 139° |
| 2026-04-20 20:53 | 41.97751 | -87.91477 | 667 ft | 20 kts | 140° |
| 2026-04-20 20:53 | 41.97639 | -87.91351 | 668 ft | 22 kts | 140° |
| 2026-04-20 20:53 | 41.97517 | -87.91214 | 667 ft | 24 kts | 140° |
| 2026-04-20 20:54 | 41.97469 | -87.91162 | 668 ft | 0 kts | 141° |
| 2026-04-20 20:54 | 41.97462 | -87.91153 | 668 ft | 3 kts | 141° |
| 2026-04-20 20:54 | 41.97424 | -87.91112 | 668 ft | 11 kts | 140° |
| 2026-04-20 20:54 | 41.97353 | -87.91033 | 668 ft | 15 kts | 140° |
| 2026-04-20 20:55 | 41.97280 | -87.90946 | 668 ft | 15 kts | 134° |
| 2026-04-20 20:55 | 41.97207 | -87.90832 | 668 ft | 17 kts | 130° |
| 2026-04-20 20:55 | 41.97156 | -87.90693 | 666 ft | 11 kts | 106° |
| 2026-04-20 20:55 | 41.97151 | -87.90616 | 668 ft | 10 kts | 92° |
| 2026-04-20 20:56 | 41.97143 | -87.90509 | 668 ft | 13 kts | 97° |
| 2026-04-20 20:56 | 41.97137 | -87.90373 | 668 ft | 16 kts | 91° |
| 2026-04-20 20:56 | 41.97142 | -87.90255 | 668 ft | 7 kts | 56° |
| 2026-04-20 20:56 | 41.97194 | -87.90214 | 668 ft | 9 kts | 19° |
| 2026-04-20 20:57 | 41.97265 | -87.90209 | 668 ft | 10 kts | 358° |
| 2026-04-20 20:57 | 41.97349 | -87.90209 | 669 ft | 12 kts | 2° |
| 2026-04-20 20:57 | 41.97395 | -87.90207 | 668 ft | 3 kts | 0° |
| 2026-04-20 20:57 | 41.97418 | -87.90207 | 669 ft | 4 kts | 360° |
| 2026-04-20 20:58 | 41.97447 | -87.90228 | 701 ft | 5 kts | 295° |
| 2026-04-20 20:58 | 41.97452 | -87.90247 | 682 ft | 0 kts | 287° |
| 2026-04-20 20:58 | 41.97455 | -87.90259 | 660 ft | 0 kts | 288° |
| 2026-04-20 20:58 | 41.97455 | -87.90260 | 661 ft | 0 kts | 288° |